createdAt,value
2022-07-31T00:01:43.630Z,51.42
2022-07-31T00:06:47.825Z,51.47
2022-07-31T00:11:50.623Z,51.45
2022-07-31T00:16:53.473Z,51.31
2022-07-31T00:21:58.583Z,51.55
2022-07-31T00:27:01.873Z,51.64
2022-07-31T00:32:05.326Z,52.15
2022-07-31T00:37:09.993Z,53.34
2022-07-31T00:42:18.280Z,53.97
2022-07-31T00:47:23.969Z,53.60
2022-07-31T00:52:29.923Z,54.22
2022-07-31T00:57:32.821Z,54.34
2022-07-31T01:02:35.648Z,54.08
2022-07-31T01:07:39.864Z,54.79
2022-07-31T01:12:53.833Z,55.07
2022-07-31T01:17:57.909Z,55.97
2022-07-31T01:23:25.968Z,56.14
2022-07-31T01:29:01.723Z,56.32
2022-07-31T01:34:12.171Z,56.06
2022-07-31T01:39:15.109Z,56.33
2022-07-31T01:44:21.278Z,56.23
2022-07-31T01:49:24.930Z,56.92
2022-07-31T01:54:29.369Z,57.98
2022-07-31T01:59:35.517Z,57.78
2022-07-31T02:04:47.043Z,57.92
2022-07-31T02:09:57.996Z,57.92
2022-07-31T02:15:09.816Z,58.29
2022-07-31T02:20:16.783Z,58.06
2022-07-31T02:25:19.637Z,58.03
2022-07-31T02:30:24.996Z,57.83
2022-07-31T02:35:28.108Z,58.82
2022-07-31T02:40:31.580Z,59.11
2022-07-31T02:45:36.137Z,59.14
2022-07-31T02:50:40.750Z,59.41
2022-07-31T02:55:45.265Z,59.27
2022-07-31T03:00:58.620Z,59.23
2022-07-31T03:06:01.665Z,59.52
2022-07-31T03:11:04.812Z,59.76
2022-07-31T03:16:11.816Z,60.10
2022-07-31T03:21:14.913Z,60.65
2022-07-31T03:26:18.657Z,61.49
2022-07-31T03:31:23.021Z,62.38
2022-07-31T03:36:26.276Z,62.81
2022-07-31T03:41:29.132Z,62.74
2022-07-31T03:46:33.484Z,62.84
2022-07-31T03:51:36.647Z,62.82
2022-07-31T03:56:41.984Z,62.91
2022-07-31T04:01:57.686Z,62.76
2022-07-31T04:07:27.819Z,62.58
2022-07-31T04:12:30.677Z,62.71
2022-07-31T04:17:34.909Z,62.69
2022-07-31T04:22:37.734Z,62.52
2022-07-31T04:27:48.194Z,62.45
2022-07-31T04:32:53.524Z,62.95
2022-07-31T04:37:58.610Z,62.81
2022-07-31T04:43:02.755Z,62.39
2022-07-31T04:48:07.689Z,62.31
2022-07-31T04:53:10.672Z,62.03
2022-07-31T04:58:16.273Z,62.42
2022-07-31T05:03:20.469Z,62.27
2022-07-31T05:08:23.423Z,62.80
2022-07-31T05:13:26.541Z,62.60
2022-07-31T05:23:51.931Z,61.91
2022-07-31T05:29:13.265Z,61.98
2022-07-31T05:34:17.440Z,61.51
2022-07-31T05:39:20.295Z,61.84
2022-07-31T05:44:49.022Z,62.26
2022-07-31T05:49:53.165Z,62.34
2022-07-31T05:54:57.817Z,62.25
2022-07-31T06:00:33.086Z,62.48
2022-07-31T06:05:38.020Z,61.44
2022-07-31T06:10:40.816Z,61.19
2022-07-31T06:15:49.039Z,60.49
2022-07-31T06:20:53.609Z,60.35
2022-07-31T06:25:56.910Z,59.30
2022-07-31T06:30:59.743Z,59.57
2022-07-31T06:36:04.361Z,59.42
2022-07-31T06:41:34.503Z,59.25
2022-07-31T06:46:57.102Z,59.31
2022-07-31T06:52:19.263Z,58.90
2022-07-31T06:57:22.097Z,58.56
2022-07-31T07:02:25.742Z,58.38
2022-07-31T07:07:31.771Z,58.71
2022-07-31T07:12:35.446Z,58.22
2022-07-31T07:17:38.269Z,57.96
2022-07-31T07:22:49.306Z,57.71
2022-07-31T07:28:12.135Z,57.39
2022-07-31T07:33:18.990Z,57.59
2022-07-31T07:38:43.193Z,56.37
2022-07-31T07:43:48.733Z,56.04
2022-07-31T07:49:05.700Z,54.50
2022-07-31T07:54:38.909Z,53.52
2022-07-31T08:00:01.141Z,52.06
2022-07-31T08:05:19.314Z,51.04
2022-07-31T08:10:23.692Z,52.13
2022-07-31T08:15:32.324Z,52.24
2022-07-31T08:20:46.508Z,51.57
2022-07-31T08:25:51.548Z,50.01
2022-07-31T08:30:55.055Z,50.03
2022-07-31T08:36:00.789Z,47.83
2022-07-31T08:41:05.307Z,44.73
2022-07-31T08:46:09.240Z,45.07
2022-07-31T08:51:16.797Z,43.84
2022-07-31T08:56:46.309Z,40.92
2022-07-31T09:01:51.293Z,40.54
2022-07-31T09:06:56.841Z,41.68
2022-07-31T09:12:01.418Z,40.77
2022-07-31T09:17:33.468Z,41.73
2022-07-31T09:22:36.470Z,42.81
2022-07-31T09:27:41.928Z,41.81
2022-07-31T09:32:45.958Z,42.42
2022-07-31T09:37:56.302Z,42.91
2022-07-31T09:43:24.574Z,43.53
2022-07-31T09:48:29.853Z,43.65
2022-07-31T09:53:43.759Z,42.44
2022-07-31T09:59:08.874Z,41.77
2022-07-31T10:04:17.753Z,42.48
2022-07-31T10:09:22.731Z,42.62
2022-07-31T10:14:51.778Z,44.15
2022-07-31T10:19:59.459Z,44.34
2022-07-31T10:25:25.508Z,41.99
2022-07-31T10:30:30.828Z,40.89
2022-07-31T10:35:44.285Z,40.64
2022-07-31T10:41:25.203Z,39.67
2022-07-31T10:46:31.124Z,40.66
2022-07-31T10:51:53.826Z,40.44
2022-07-31T10:57:23.217Z,41.61
2022-07-31T11:02:50.437Z,41.95
2022-07-31T11:08:13.077Z,43.40
2022-07-31T11:13:33.641Z,42.92
2022-07-31T11:18:59.741Z,43.26
2022-07-31T11:24:13.523Z,43.93
2022-07-31T11:30:01.218Z,43.77
2022-07-31T11:34:54.096Z,43.07
2022-07-31T11:39:58.145Z,42.70
2022-07-31T11:45:11.296Z,40.56
2022-07-31T11:50:16.657Z,41.07
2022-07-31T11:55:19.504Z,41.36
2022-07-31T12:00:26.691Z,41.42
2022-07-31T12:05:54.833Z,41.73
2022-07-31T12:10:59.814Z,42.73
2022-07-31T12:16:05.141Z,44.14
2022-07-31T12:21:10.035Z,44.45
2022-07-31T12:26:22.133Z,44.61
2022-07-31T12:31:24.773Z,44.97
2022-07-31T12:36:28.716Z,46.89
2022-07-31T12:41:32.523Z,45.63
2022-07-31T12:46:37.009Z,45.45
2022-07-31T12:51:46.342Z,44.93
2022-07-31T12:56:49.789Z,43.14
2022-07-31T13:01:52.647Z,40.41
2022-07-31T13:06:56.956Z,39.85
2022-07-31T13:11:59.801Z,40.64
2022-07-31T13:17:02.874Z,42.29
2022-07-31T13:22:07.568Z,41.96
2022-07-31T13:27:10.352Z,43.30
2022-07-31T13:32:13.217Z,44.43
2022-07-31T13:37:17.368Z,45.13
2022-07-31T13:42:20.373Z,46.08
2022-07-31T13:47:23.671Z,46.60
2022-07-31T13:52:28.428Z,48.47
2022-07-31T13:57:31.265Z,48.25
2022-07-31T14:02:34.073Z,49.11
2022-07-31T14:07:45.040Z,48.62
2022-07-31T14:12:51.351Z,51.10
2022-07-31T14:17:54.151Z,53.45
2022-07-31T14:22:58.490Z,50.14
2022-07-31T14:28:01.340Z,49.04
2022-07-31T14:33:04.659Z,48.93
2022-07-31T14:38:09.005Z,49.99
2022-07-31T14:43:12.569Z,49.45
2022-07-31T14:48:16.005Z,49.37
2022-07-31T14:53:20.527Z,62.42
2022-07-31T14:58:23.353Z,71.03
2022-07-31T15:03:26.137Z,75.08
2022-07-31T15:08:30.321Z,77.75
2022-07-31T15:13:36.058Z,79.24
2022-07-31T15:18:41.681Z,77.10
2022-07-31T15:23:45.876Z,75.48
2022-07-31T15:28:48.752Z,75.09
2022-07-31T15:33:51.685Z,73.93
2022-07-31T15:38:55.916Z,69.41
2022-07-31T15:43:59.215Z,68.61
2022-07-31T15:49:02.878Z,65.97
2022-07-31T15:54:07.226Z,64.55
2022-07-31T15:59:10.061Z,64.31
2022-07-31T16:04:16.448Z,63.27
2022-07-31T16:09:23.917Z,59.39
2022-07-31T16:14:26.810Z,56.68
2022-07-31T16:19:29.872Z,57.67
2022-07-31T16:24:38.148Z,57.49
2022-07-31T16:29:59.962Z,58.00
2022-07-31T16:35:03.813Z,54.47
2022-07-31T16:40:10.067Z,56.24
2022-07-31T16:45:32.486Z,56.83
2022-07-31T16:50:35.408Z,57.48
2022-07-31T16:56:01.031Z,57.81
2022-07-31T17:01:04.043Z,57.44
2022-07-31T17:06:07.161Z,55.39
2022-07-31T17:11:11.332Z,52.16
2022-07-31T17:16:14.230Z,54.39
2022-07-31T17:21:17.101Z,55.70
2022-07-31T17:26:22.272Z,55.57
2022-07-31T17:31:25.198Z,55.79
2022-07-31T17:36:28.377Z,55.80
2022-07-31T17:41:32.640Z,56.55
2022-07-31T17:46:36.706Z,58.66
2022-07-31T17:51:57.834Z,62.54
2022-07-31T17:57:05.571Z,64.16
2022-07-31T18:02:08.705Z,63.67
2022-07-31T18:07:12.271Z,65.53
2022-07-31T18:12:17.004Z,67.44
2022-07-31T18:17:20.433Z,75.49
2022-07-31T18:22:23.311Z,80.17
2022-07-31T18:27:27.614Z,79.88
2022-07-31T18:32:31.054Z,81.06
2022-07-31T18:37:34.001Z,84.22
2022-07-31T18:42:38.173Z,82.50
2022-07-31T18:47:41.088Z,82.70
2022-07-31T18:52:44.354Z,82.64
2022-07-31T18:57:48.642Z,83.16
2022-07-31T19:02:51.497Z,84.68
2022-07-31T19:07:54.341Z,85.62
2022-07-31T19:12:58.493Z,85.31
2022-07-31T19:18:02.152Z,85.40
2022-07-31T19:23:06.157Z,86.64
2022-07-31T19:28:16.731Z,87.57
2022-07-31T19:33:19.810Z,86.52
2022-07-31T19:38:22.666Z,87.88
2022-07-31T19:43:26.940Z,87.44
2022-07-31T19:48:29.785Z,87.04
2022-07-31T19:53:33.041Z,86.56
2022-07-31T19:58:38.283Z,86.51
2022-07-31T20:03:41.541Z,86.09
2022-07-31T20:08:44.514Z,87.02
2022-07-31T20:13:48.742Z,87.75
2022-07-31T20:18:51.890Z,87.58
2022-07-31T20:23:56.536Z,87.46
2022-07-31T20:29:00.728Z,86.22
2022-07-31T20:40:54.675Z,87.76
2022-07-31T20:46:00.125Z,86.00
2022-07-31T20:51:04.549Z,86.02
2022-07-31T20:56:07.401Z,87.69
2022-07-31T21:01:11.600Z,86.71
2022-07-31T21:06:14.571Z,85.94
2022-07-31T21:11:17.290Z,85.51
2022-07-31T21:16:21.430Z,85.69
2022-07-31T21:21:24.222Z,85.21
2022-07-31T21:26:28.353Z,86.63
2022-07-31T21:31:33.016Z,88.04
2022-07-31T21:36:36.580Z,86.67
2022-07-31T21:41:39.631Z,87.94
2022-07-31T21:46:50.561Z,88.07
2022-07-31T21:51:55.273Z,87.81
2022-07-31T21:56:58.022Z,89.42
2022-07-31T22:02:02.438Z,89.35
2022-07-31T22:07:22.959Z,89.31
2022-07-31T22:12:25.981Z,88.72
2022-07-31T22:17:30.229Z,87.77
2022-07-31T22:22:33.658Z,88.77
2022-07-31T22:27:56.509Z,89.60
2022-07-31T22:33:01.518Z,89.65
2022-07-31T22:38:04.601Z,89.00
2022-07-31T22:43:08.326Z,88.60
2022-07-31T22:48:32.833Z,87.99
2022-07-31T22:53:36.175Z,89.25
2022-07-31T22:58:39.016Z,87.88
2022-07-31T23:03:43.158Z,87.81
2022-07-31T23:08:46.004Z,88.29
2022-07-31T23:13:53.139Z,87.54
2022-07-31T23:18:57.334Z,88.25
2022-07-31T23:24:00.304Z,89.48
2022-07-31T23:29:03.236Z,88.63
2022-07-31T23:34:07.403Z,90.41
2022-07-31T23:39:11.683Z,89.27
2022-07-31T23:44:18.563Z,90.12
2022-07-31T23:49:29.747Z,88.87
2022-07-31T23:54:32.881Z,88.44
2022-07-31T23:59:35.727Z,87.03
